sensor_id;sensor_type;location;lat;lon;timestamp;pressure;altitude;pressure_sealevel;temperature;humidity
77749;BME280;66938;52.084;5.228;2023-04-06T00:00:58;101973.0;;;3.7;74.58
77749;BME280;66938;52.084;5.228;2023-04-06T00:02:35;101977.0;;;3.76;74.39
77749;BME280;66938;52.084;5.228;2023-04-06T00:05:48;101974.0;;;3.77;74.36
77749;BME280;66938;52.084;5.228;2023-04-06T00:07:24;101975.0;;;3.81;73.16
77749;BME280;66938;52.084;5.228;2023-04-06T00:09:01;101971.0;;;3.88;72.67
77749;BME280;66938;52.084;5.228;2023-04-06T00:12:13;101967.0;;;3.94;71.05
77749;BME280;66938;52.084;5.228;2023-04-06T00:13:49;101966.0;;;4.0;70.13
77749;BME280;66938;52.084;5.228;2023-04-06T00:15:26;101959.0;;;4.07;69.05
77749;BME280;66938;52.084;5.228;2023-04-06T00:18:39;101960.0;;;4.16;66.98
77749;BME280;66938;52.084;5.228;2023-04-06T00:20:15;101961.0;;;4.22;66.08
77749;BME280;66938;52.084;5.228;2023-04-06T00:21:52;101956.0;;;4.3;67.16
77749;BME280;66938;52.084;5.228;2023-04-06T00:25:05;101955.0;;;4.36;65.72
77749;BME280;66938;52.084;5.228;2023-04-06T00:26:41;101953.0;;;4.41;64.92
77749;BME280;66938;52.084;5.228;2023-04-06T00:28:17;101948.0;;;4.49;66.47
77749;BME280;66938;52.084;5.228;2023-04-06T00:29:54;101948.0;;;4.53;64.72
77749;BME280;66938;52.084;5.228;2023-04-06T00:33:06;101946.0;;;4.58;64.6
77749;BME280;66938;52.084;5.228;2023-04-06T00:34:42;101942.0;;;4.61;64.22
77749;BME280;66938;52.084;5.228;2023-04-06T00:36:18;101944.0;;;4.66;63.08
77749;BME280;66938;52.084;5.228;2023-04-06T00:39:30;101938.0;;;4.7;64.98
77749;BME280;66938;52.084;5.228;2023-04-06T00:41:06;101936.0;;;4.72;64.83
77749;BME280;66938;52.084;5.228;2023-04-06T00:42:43;101931.0;;;4.76;63.58
77749;BME280;66938;52.084;5.228;2023-04-06T00:45:56;101930.0;;;4.75;64.58
77749;BME280;66938;52.084;5.228;2023-04-06T00:47:32;101930.0;;;4.8;62.61
77749;BME280;66938;52.084;5.228;2023-04-06T00:49:09;101927.0;;;4.87;61.46
77749;BME280;66938;52.084;5.228;2023-04-06T00:50:45;101920.0;;;4.87;62.5
77749;BME280;66938;52.084;5.228;2023-04-06T00:53:58;101921.0;;;4.89;63.58
77749;BME280;66938;52.084;5.228;2023-04-06T00:55:35;101915.0;;;4.91;63.05
77749;BME280;66938;52.084;5.228;2023-04-06T00:57:11;101922.0;;;4.93;63.35
77749;BME280;66938;52.084;5.228;2023-04-06T01:00:24;101920.0;;;4.96;63.79
77749;BME280;66938;52.084;5.228;2023-04-06T01:02:00;101918.0;;;5.01;64.87
77749;BME280;66938;52.084;5.228;2023-04-06T01:03:36;101915.0;;;4.99;64.3
77749;BME280;66938;52.084;5.228;2023-04-06T01:06:49;101907.0;;;4.99;63.57
77749;BME280;66938;52.084;5.228;2023-04-06T01:08:26;101907.0;;;5.04;62.29
77749;BME280;66938;52.084;5.228;2023-04-06T01:10:03;101910.0;;;5.05;61.89
77749;BME280;66938;52.084;5.228;2023-04-06T01:11:40;101905.0;;;5.12;61.07
77749;BME280;66938;52.084;5.228;2023-04-06T01:14:52;101896.0;;;5.12;60.49
77749;BME280;66938;52.084;5.228;2023-04-06T01:16:28;101894.0;;;5.12;60.59
77749;BME280;66938;52.084;5.228;2023-04-06T01:18:04;101896.0;;;5.16;61.37
77749;BME280;66938;52.084;5.228;2023-04-06T01:21:17;101896.0;;;5.17;61.62
77749;BME280;66938;52.084;5.228;2023-04-06T01:22:53;101895.0;;;5.19;60.7
77749;BME280;66938;52.084;5.228;2023-04-06T01:24:29;101898.0;;;5.21;61.3
77749;BME280;66938;52.084;5.228;2023-04-06T01:27:41;101894.0;;;5.23;60.9
77749;BME280;66938;52.084;5.228;2023-04-06T01:29:17;101894.0;;;5.28;60.47
77749;BME280;66938;52.084;5.228;2023-04-06T01:30:53;101889.0;;;5.34;60.02
77749;BME280;66938;52.084;5.228;2023-04-06T01:34:06;101883.0;;;5.36;59.47
77749;BME280;66938;52.084;5.228;2023-04-06T01:35:42;101876.0;;;5.34;59.78
77749;BME280;66938;52.084;5.228;2023-04-06T01:37:18;101877.0;;;5.35;60.09
77749;BME280;66938;52.084;5.228;2023-04-06T01:38:54;101878.0;;;5.4;60.22
77749;BME280;66938;52.084;5.228;2023-04-06T01:42:06;101875.0;;;5.4;60.45
77749;BME280;66938;52.084;5.228;2023-04-06T01:43:43;101875.0;;;5.43;59.76
77749;BME280;66938;52.084;5.228;2023-04-06T01:45:19;101871.0;;;5.42;60.08
77749;BME280;66938;52.084;5.228;2023-04-06T01:48:31;101867.0;;;5.44;59.61
77749;BME280;66938;52.084;5.228;2023-04-06T01:50:07;101860.0;;;5.5;59.34
77749;BME280;66938;52.084;5.228;2023-04-06T01:51:43;101859.0;;;5.54;58.91
77749;BME280;66938;52.084;5.228;2023-04-06T01:54:56;101858.0;;;5.52;59.08
77749;BME280;66938;52.084;5.228;2023-04-06T01:56:32;101856.0;;;5.58;59.05
77749;BME280;66938;52.084;5.228;2023-04-06T01:58:08;101858.0;;;5.59;59.12
77749;BME280;66938;52.084;5.228;2023-04-06T01:59:44;101853.0;;;5.61;58.54
77749;BME280;66938;52.084;5.228;2023-04-06T02:02:56;101852.0;;;5.62;58.58
77749;BME280;66938;52.084;5.228;2023-04-06T02:04:32;101847.0;;;5.68;58.4
77749;BME280;66938;52.084;5.228;2023-04-06T02:06:09;101844.0;;;5.69;57.51
77749;BME280;66938;52.084;5.228;2023-04-06T02:09:21;101844.0;;;5.72;58.18
77749;BME280;66938;52.084;5.228;2023-04-06T02:10:57;101842.0;;;5.77;57.52
77749;BME280;66938;52.084;5.228;2023-04-06T02:12:33;101842.0;;;5.73;58.08
77749;BME280;66938;52.084;5.228;2023-04-06T02:15:46;101838.0;;;5.73;58.24
77749;BME280;66938;52.084;5.228;2023-04-06T02:17:22;101828.0;;;5.78;57.75
77749;BME280;66938;52.084;5.228;2023-04-06T02:18:58;101826.0;;;5.87;57.24
77749;BME280;66938;52.084;5.228;2023-04-06T02:22:10;101827.0;;;5.91;56.76
77749;BME280;66938;52.084;5.228;2023-04-06T02:23:46;101831.0;;;5.94;56.65
77749;BME280;66938;52.084;5.228;2023-04-06T02:25:22;101822.0;;;5.98;56.08
77749;BME280;66938;52.084;5.228;2023-04-06T02:26:59;101821.0;;;6.03;55.76
77749;BME280;66938;52.084;5.228;2023-04-06T02:30:12;101819.0;;;6.05;56.33
77749;BME280;66938;52.084;5.228;2023-04-06T02:31:48;101820.0;;;6.09;55.54
77749;BME280;66938;52.084;5.228;2023-04-06T02:33:24;101823.0;;;6.08;55.51
77749;BME280;66938;52.084;5.228;2023-04-06T02:36:37;101819.0;;;6.13;55.3
77749;BME280;66938;52.084;5.228;2023-04-06T02:38:13;101813.0;;;6.12;54.88
77749;BME280;66938;52.084;5.228;2023-04-06T02:39:50;101810.0;;;6.16;54.85
77749;BME280;66938;52.084;5.228;2023-04-06T02:43:02;101809.0;;;6.21;54.56
77749;BME280;66938;52.084;5.228;2023-04-06T02:44:38;101803.0;;;6.25;54.39
77749;BME280;66938;52.084;5.228;2023-04-06T02:46:14;101801.0;;;6.26;54.31
77749;BME280;66938;52.084;5.228;2023-04-06T02:47:50;101798.0;;;6.27;54.24
77749;BME280;66938;52.084;5.228;2023-04-06T02:51:03;101795.0;;;6.29;53.99
77749;BME280;66938;52.084;5.228;2023-04-06T02:52:39;101796.0;;;6.31;54.29
77749;BME280;66938;52.084;5.228;2023-04-06T02:54:15;101791.0;;;6.29;53.72
77749;BME280;66938;52.084;5.228;2023-04-06T02:57:27;101790.0;;;6.31;54.46
77749;BME280;66938;52.084;5.228;2023-04-06T02:59:03;101790.0;;;6.32;54.4
77749;BME280;66938;52.084;5.228;2023-04-06T03:00:40;101788.0;;;6.34;53.9
77749;BME280;66938;52.084;5.228;2023-04-06T03:03:52;101780.0;;;6.37;53.67
77749;BME280;66938;52.084;5.228;2023-04-06T03:05:28;101775.0;;;6.45;53.67
77749;BME280;66938;52.084;5.228;2023-04-06T03:07:04;101776.0;;;6.44;53.55
77749;BME280;66938;52.084;5.228;2023-04-06T03:10:17;101776.0;;;6.46;53.14
77749;BME280;66938;52.084;5.228;2023-04-06T03:11:53;101777.0;;;6.46;53.22
77749;BME280;66938;52.084;5.228;2023-04-06T03:13:29;101773.0;;;6.5;53.52
77749;BME280;66938;52.084;5.228;2023-04-06T03:15:06;101773.0;;;6.43;54.18
77749;BME280;66938;52.084;5.228;2023-04-06T03:18:21;101777.0;;;6.44;54.06
77749;BME280;66938;52.084;5.228;2023-04-06T03:19:57;101773.0;;;6.41;54.06
77749;BME280;66938;52.084;5.228;2023-04-06T03:21:33;101770.0;;;6.36;54.33
77749;BME280;66938;52.084;5.228;2023-04-06T03:24:46;101773.0;;;6.38;54.1
77749;BME280;66938;52.084;5.228;2023-04-06T03:26:22;101773.0;;;6.32;54.12
77749;BME280;66938;52.084;5.228;2023-04-06T03:27:58;101769.0;;;6.33;54.35
77749;BME280;66938;52.084;5.228;2023-04-06T03:31:10;101766.0;;;6.29;54.43
77749;BME280;66938;52.084;5.228;2023-04-06T03:32:47;101761.0;;;6.29;54.12
77749;BME280;66938;52.084;5.228;2023-04-06T03:34:23;101766.0;;;6.34;54.21
77749;BME280;66938;52.084;5.228;2023-04-06T03:35:59;101765.0;;;6.34;54.14
77749;BME280;66938;52.084;5.228;2023-04-06T03:39:12;101761.0;;;6.32;54.28
77749;BME280;66938;52.084;5.228;2023-04-06T03:40:48;101761.0;;;6.33;54.2
77749;BME280;66938;52.084;5.228;2023-04-06T03:42:24;101761.0;;;6.26;55.16
77749;BME280;66938;52.084;5.228;2023-04-06T03:45:37;101757.0;;;6.18;55.29
77749;BME280;66938;52.084;5.228;2023-04-06T03:47:13;101761.0;;;6.17;55.01
77749;BME280;66938;52.084;5.228;2023-04-06T03:48:49;101759.0;;;6.09;55.82
77749;BME280;66938;52.084;5.228;2023-04-06T03:52:01;101756.0;;;6.1;55.38
77749;BME280;66938;52.084;5.228;2023-04-06T03:53:37;101755.0;;;6.0;56.53
77749;BME280;66938;52.084;5.228;2023-04-06T03:55:13;101756.0;;;6.05;55.37
77749;BME280;66938;52.084;5.228;2023-04-06T03:58:25;101747.0;;;6.03;55.59
77749;BME280;66938;52.084;5.228;2023-04-06T04:00:01;101751.0;;;5.98;56.03
77749;BME280;66938;52.084;5.228;2023-04-06T04:01:37;101747.0;;;6.05;55.65
77749;BME280;66938;52.084;5.228;2023-04-06T04:04:50;101749.0;;;6.09;55.52
77749;BME280;66938;52.084;5.228;2023-04-06T04:06:25;101748.0;;;6.1;55.33
77749;BME280;66938;52.084;5.228;2023-04-06T04:08:02;101750.0;;;6.13;55.47
77749;BME280;66938;52.084;5.228;2023-04-06T04:11:14;101746.0;;;6.12;55.37
77749;BME280;66938;52.084;5.228;2023-04-06T04:12:50;101746.0;;;6.14;55.38
77749;BME280;66938;52.084;5.228;2023-04-06T04:14:26;101748.0;;;6.14;55.11
77749;BME280;66938;52.084;5.228;2023-04-06T04:17:39;101749.0;;;6.08;56.2
77749;BME280;66938;52.084;5.228;2023-04-06T04:19:15;101745.0;;;6.06;56.08
77749;BME280;66938;52.084;5.228;2023-04-06T04:20:51;101746.0;;;6.15;55.63
77749;BME280;66938;52.084;5.228;2023-04-06T04:24:04;101748.0;;;6.16;55.6
77749;BME280;66938;52.084;5.228;2023-04-06T04:25:41;101745.0;;;6.16;55.77
77749;BME280;66938;52.084;5.228;2023-04-06T04:32:14;101744.0;;;6.15;55.63
77749;BME280;66938;52.084;5.228;2023-04-06T04:33:51;101742.0;;;6.16;55.62
77749;BME280;66938;52.084;5.228;2023-04-06T04:35:27;101737.0;;;6.18;55.36
77749;BME280;66938;52.084;5.228;2023-04-06T04:38:39;101747.0;;;6.15;56.69
77749;BME280;66938;52.084;5.228;2023-04-06T04:40:16;101743.0;;;6.14;55.94
77749;BME280;66938;52.084;5.228;2023-04-06T04:41:52;101742.0;;;6.18;56.09
77749;BME280;66938;52.084;5.228;2023-04-06T04:43:29;101743.0;;;6.16;56.81
77749;BME280;66938;52.084;5.228;2023-04-06T04:46:41;101740.0;;;6.17;56.37
77749;BME280;66938;52.084;5.228;2023-04-06T04:48:18;101744.0;;;6.21;55.72
77749;BME280;66938;52.084;5.228;2023-04-06T04:49:54;101737.0;;;6.26;55.62
77749;BME280;66938;52.084;5.228;2023-04-06T04:53:07;101742.0;;;6.22;56.34
77749;BME280;66938;52.084;5.228;2023-04-06T04:54:43;101738.0;;;6.24;55.52
77749;BME280;66938;52.084;5.228;2023-04-06T04:56:19;101737.0;;;6.3;55.45
77749;BME280;66938;52.084;5.228;2023-04-06T04:59:34;101727.0;;;6.33;55.64
77749;BME280;66938;52.084;5.228;2023-04-06T05:01:11;101730.0;;;6.32;56.02
77749;BME280;66938;52.084;5.228;2023-04-06T05:02:47;101727.0;;;6.34;55.79
77749;BME280;66938;52.084;5.228;2023-04-06T05:04:24;101727.0;;;6.34;55.43
77749;BME280;66938;52.084;5.228;2023-04-06T05:07:36;101724.0;;;6.41;55.3
77749;BME280;66938;52.084;5.228;2023-04-06T05:09:13;101723.0;;;6.41;55.42
77749;BME280;66938;52.084;5.228;2023-04-06T05:10:49;101725.0;;;6.45;55.44
77749;BME280;66938;52.084;5.228;2023-04-06T05:14:02;101728.0;;;6.46;55.57
77749;BME280;66938;52.084;5.228;2023-04-06T05:15:39;101727.0;;;6.46;55.69
77749;BME280;66938;52.084;5.228;2023-04-06T05:17:15;101724.0;;;6.46;55.5
77749;BME280;66938;52.084;5.228;2023-04-06T05:20:28;101730.0;;;6.45;55.57
77749;BME280;66938;52.084;5.228;2023-04-06T05:22:05;101723.0;;;6.5;55.34
77749;BME280;66938;52.084;5.228;2023-04-06T05:23:41;101722.0;;;6.46;55.91
77749;BME280;66938;52.084;5.228;2023-04-06T05:25:18;101722.0;;;6.49;55.98
77749;BME280;66938;52.084;5.228;2023-04-06T05:28:32;101718.0;;;6.51;55.77
77749;BME280;66938;52.084;5.228;2023-04-06T05:30:09;101720.0;;;6.55;55.72
77749;BME280;66938;52.084;5.228;2023-04-06T05:31:45;101726.0;;;6.52;55.88
77749;BME280;66938;52.084;5.228;2023-04-06T05:36:36;101725.0;;;6.54;56.3
77749;BME280;66938;52.084;5.228;2023-04-06T05:38:13;101719.0;;;6.5;56.43
77749;BME280;66938;52.084;5.228;2023-04-06T05:41:25;101717.0;;;6.52;55.75
77749;BME280;66938;52.084;5.228;2023-04-06T05:43:01;101712.0;;;6.57;56.05
77749;BME280;66938;52.084;5.228;2023-04-06T05:44:38;101711.0;;;6.62;55.71
77749;BME280;66938;52.084;5.228;2023-04-06T05:46:14;101723.0;;;6.55;56.49
77749;BME280;66938;52.084;5.228;2023-04-06T05:51:03;101715.0;;;6.63;55.89
77749;BME280;66938;52.084;5.228;2023-04-06T05:52:40;101715.0;;;6.67;56.38
77749;BME280;66938;52.084;5.228;2023-04-06T05:55:53;101718.0;;;6.71;56.29
77749;BME280;66938;52.084;5.228;2023-04-06T05:57:29;101719.0;;;6.7;57.23
77749;BME280;66938;52.084;5.228;2023-04-06T05:59:06;101721.0;;;6.73;56.44
77749;BME280;66938;52.084;5.228;2023-04-06T06:02:20;101724.0;;;6.73;55.94
77749;BME280;66938;52.084;5.228;2023-04-06T06:03:57;101716.0;;;6.77;56.05
77749;BME280;66938;52.084;5.228;2023-04-06T06:05:34;101720.0;;;6.79;56.05
77749;BME280;66938;52.084;5.228;2023-04-06T06:07:10;101724.0;;;6.88;55.76
77749;BME280;66938;52.084;5.228;2023-04-06T06:10:23;101723.0;;;6.87;55.75
77749;BME280;66938;52.084;5.228;2023-04-06T06:12:00;101723.0;;;6.94;55.6
77749;BME280;66938;52.084;5.228;2023-04-06T06:13:36;101720.0;;;6.98;56.13
77749;BME280;66938;52.084;5.228;2023-04-06T06:16:48;101718.0;;;7.0;55.96
77749;BME280;66938;52.084;5.228;2023-04-06T06:18:24;101712.0;;;7.08;55.86
77749;BME280;66938;52.084;5.228;2023-04-06T06:20:01;101717.0;;;7.12;56.06
77749;BME280;66938;52.084;5.228;2023-04-06T06:23:13;101712.0;;;7.14;56.23
77749;BME280;66938;52.084;5.228;2023-04-06T06:24:50;101714.0;;;7.2;56.06
77749;BME280;66938;52.084;5.228;2023-04-06T06:26:26;101711.0;;;7.28;55.72
77749;BME280;66938;52.084;5.228;2023-04-06T06:28:02;101711.0;;;7.22;56.37
77749;BME280;66938;52.084;5.228;2023-04-06T06:31:14;101709.0;;;7.29;56.33
77749;BME280;66938;52.084;5.228;2023-04-06T06:32:52;101709.0;;;7.38;55.87
77749;BME280;66938;52.084;5.228;2023-04-06T06:34:27;101714.0;;;7.49;55.4
77749;BME280;66938;52.084;5.228;2023-04-06T06:37:40;101716.0;;;7.57;55.35
77749;BME280;66938;52.084;5.228;2023-04-06T06:39:16;101718.0;;;7.62;55.38
77749;BME280;66938;52.084;5.228;2023-04-06T06:40:52;101717.0;;;7.66;55.57
77749;BME280;66938;52.084;5.228;2023-04-06T06:44:04;101717.0;;;7.67;56.11
77749;BME280;66938;52.084;5.228;2023-04-06T06:45:41;101719.0;;;7.71;55.56
77749;BME280;66938;52.084;5.228;2023-04-06T06:47:18;101721.0;;;7.82;55.1
77749;BME280;66938;52.084;5.228;2023-04-06T06:48:54;101717.0;;;7.82;55.94
77749;BME280;66938;52.084;5.228;2023-04-06T06:52:06;101716.0;;;7.92;55.17
77749;BME280;66938;52.084;5.228;2023-04-06T06:53:42;101714.0;;;7.95;56.05
77749;BME280;66938;52.084;5.228;2023-04-06T06:55:18;101712.0;;;7.88;55.99
77749;BME280;66938;52.084;5.228;2023-04-06T06:58:31;101710.0;;;7.89;56.38
77749;BME280;66938;52.084;5.228;2023-04-06T07:00:09;101711.0;;;7.95;55.41
77749;BME280;66938;52.084;5.228;2023-04-06T07:01:45;101707.0;;;7.98;55.15
77749;BME280;66938;52.084;5.228;2023-04-06T07:04:57;101707.0;;;7.88;55.91
77749;BME280;66938;52.084;5.228;2023-04-06T07:06:35;101708.0;;;7.85;57.44
77749;BME280;66938;52.084;5.228;2023-04-06T07:08:11;101700.0;;;7.99;56.06
77749;BME280;66938;52.084;5.228;2023-04-06T07:11:24;101695.0;;;8.06;55.51
77749;BME280;66938;52.084;5.228;2023-04-06T07:13:00;101695.0;;;8.03;56.14
77749;BME280;66938;52.084;5.228;2023-04-06T07:14:36;101693.0;;;8.1;55.32
77749;BME280;66938;52.084;5.228;2023-04-06T07:16:12;101688.0;;;8.15;54.92
77749;BME280;66938;52.084;5.228;2023-04-06T07:19:24;101689.0;;;8.23;55.08
77749;BME280;66938;52.084;5.228;2023-04-06T07:21:00;101689.0;;;8.23;54.44
77749;BME280;66938;52.084;5.228;2023-04-06T07:22:37;101690.0;;;8.3;54.53
77749;BME280;66938;52.084;5.228;2023-04-06T07:25:50;101685.0;;;8.3;54.28
77749;BME280;66938;52.084;5.228;2023-04-06T07:27:26;101682.0;;;8.39;54.56
77749;BME280;66938;52.084;5.228;2023-04-06T07:29:02;101686.0;;;8.33;54.87
77749;BME280;66938;52.084;5.228;2023-04-06T07:32:16;101687.0;;;8.39;54.94
77749;BME280;66938;52.084;5.228;2023-04-06T07:33:52;101683.0;;;8.35;55.52
77749;BME280;66938;52.084;5.228;2023-04-06T07:35:28;101686.0;;;8.42;55.21
77749;BME280;66938;52.084;5.228;2023-04-06T07:37:04;101686.0;;;8.44;55.38
77749;BME280;66938;52.084;5.228;2023-04-06T07:40:16;101684.0;;;8.48;55.27
77749;BME280;66938;52.084;5.228;2023-04-06T07:41:52;101681.0;;;8.6;54.75
77749;BME280;66938;52.084;5.228;2023-04-06T07:43:28;101688.0;;;8.69;54.61
77749;BME280;66938;52.084;5.228;2023-04-06T07:46:42;101687.0;;;8.69;55.15
77749;BME280;66938;52.084;5.228;2023-04-06T07:48:18;101688.0;;;8.73;55.46
77749;BME280;66938;52.084;5.228;2023-04-06T07:49:54;101685.0;;;8.81;54.7
77749;BME280;66938;52.084;5.228;2023-04-06T07:53:08;101690.0;;;8.9;54.44
77749;BME280;66938;52.084;5.228;2023-04-06T07:54:44;101684.0;;;8.98;54.46
77749;BME280;66938;52.084;5.228;2023-04-06T07:56:21;101685.0;;;9.06;53.94
77749;BME280;66938;52.084;5.228;2023-04-06T07:57:57;101690.0;;;9.03;54.9
77749;BME280;66938;52.084;5.228;2023-04-06T08:01:09;101687.0;;;9.06;55.07
77749;BME280;66938;52.084;5.228;2023-04-06T08:02:45;101689.0;;;9.11;54.63
77749;BME280;66938;52.084;5.228;2023-04-06T08:04:21;101691.0;;;9.14;54.71
77749;BME280;66938;52.084;5.228;2023-04-06T08:07:34;101682.0;;;9.11;54.97
77749;BME280;66938;52.084;5.228;2023-04-06T08:09:10;101687.0;;;9.14;54.72
77749;BME280;66938;52.084;5.228;2023-04-06T08:10:46;101684.0;;;9.24;54.39
77749;BME280;66938;52.084;5.228;2023-04-06T08:13:57;101685.0;;;9.34;53.73
77749;BME280;66938;52.084;5.228;2023-04-06T08:15:33;101680.0;;;9.46;54.31
77749;BME280;66938;52.084;5.228;2023-04-06T08:17:09;101684.0;;;9.56;53.09
77749;BME280;66938;52.084;5.228;2023-04-06T08:20:22;101682.0;;;9.6;52.56
77749;BME280;66938;52.084;5.228;2023-04-06T08:21:58;101688.0;;;9.66;52.72
77749;BME280;66938;52.084;5.228;2023-04-06T08:23:34;101686.0;;;9.74;52.44
77749;BME280;66938;52.084;5.228;2023-04-06T08:25:10;101681.0;;;9.83;52.45
77749;BME280;66938;52.084;5.228;2023-04-06T08:28:21;101681.0;;;9.84;52.54
77749;BME280;66938;52.084;5.228;2023-04-06T08:29:58;101680.0;;;9.85;53.21
77749;BME280;66938;52.084;5.228;2023-04-06T08:31:34;101676.0;;;9.98;52.02
77749;BME280;66938;52.084;5.228;2023-04-06T08:34:46;101682.0;;;10.06;52.63
77749;BME280;66938;52.084;5.228;2023-04-06T08:36:22;101683.0;;;10.07;52.63
77749;BME280;66938;52.084;5.228;2023-04-06T08:37:58;101691.0;;;10.15;53.6
77749;BME280;66938;52.084;5.228;2023-04-06T08:41:12;101688.0;;;10.17;52.38
77749;BME280;66938;52.084;5.228;2023-04-06T08:42:50;101681.0;;;10.23;52.24
77749;BME280;66938;52.084;5.228;2023-04-06T08:44:31;101684.0;;;10.29;52.36
77749;BME280;66938;52.084;5.228;2023-04-06T08:46:08;101682.0;;;10.27;52.99
77749;BME280;66938;52.084;5.228;2023-04-06T08:49:22;101689.0;;;10.3;52.88
77749;BME280;66938;52.084;5.228;2023-04-06T08:50:59;101680.0;;;10.23;54.22
77749;BME280;66938;52.084;5.228;2023-04-06T08:52:35;101683.0;;;10.34;53.29
77749;BME280;66938;52.084;5.228;2023-04-06T08:55:49;101680.0;;;10.42;53.4
77749;BME280;66938;52.084;5.228;2023-04-06T08:57:26;101680.0;;;10.38;53.32
77749;BME280;66938;52.084;5.228;2023-04-06T08:59:03;101680.0;;;10.34;53.59
77749;BME280;66938;52.084;5.228;2023-04-06T09:02:18;101681.0;;;10.41;53.66
77749;BME280;66938;52.084;5.228;2023-04-06T09:03:56;101685.0;;;10.34;54.04
77749;BME280;66938;52.084;5.228;2023-04-06T09:05:34;101690.0;;;10.43;52.94
77749;BME280;66938;52.084;5.228;2023-04-06T09:07:11;101687.0;;;10.46;53.09
77749;BME280;66938;52.084;5.228;2023-04-06T09:10:23;101694.0;;;10.47;53.72
77749;BME280;66938;52.084;5.228;2023-04-06T09:11:59;101691.0;;;10.52;53.3
77749;BME280;66938;52.084;5.228;2023-04-06T09:13:44;101694.0;;;10.56;53.51
77749;BME280;66938;52.084;5.228;2023-04-06T09:15:22;101695.0;;;10.59;53.54
77749;BME280;66938;52.084;5.228;2023-04-06T09:18:34;101696.0;;;10.59;53.44
77749;BME280;66938;52.084;5.228;2023-04-06T09:20:11;101695.0;;;10.64;53.45
77749;BME280;66938;52.084;5.228;2023-04-06T09:21:47;101700.0;;;10.71;53.32
77749;BME280;66938;52.084;5.228;2023-04-06T09:24:59;101695.0;;;10.77;52.62
77749;BME280;66938;52.084;5.228;2023-04-06T09:26:50;101698.0;;;10.76;52.82
77749;BME280;66938;52.084;5.228;2023-04-06T09:28:26;101696.0;;;10.78;52.52
77749;BME280;66938;52.084;5.228;2023-04-06T09:30:04;101692.0;;;10.78;53.38
77749;BME280;66938;52.084;5.228;2023-04-06T09:33:22;101689.0;;;10.65;54.32
77749;BME280;66938;52.084;5.228;2023-04-06T09:35:07;101699.0;;;10.69;54.56
77749;BME280;66938;52.084;5.228;2023-04-06T09:36:43;101700.0;;;10.75;54.98
77749;BME280;66938;52.084;5.228;2023-04-06T09:40:02;101697.0;;;10.65;55.25
77749;BME280;66938;52.084;5.228;2023-04-06T09:41:39;101694.0;;;10.74;55.17
77749;BME280;66938;52.084;5.228;2023-04-06T09:43:23;101692.0;;;10.72;55.0
77749;BME280;66938;52.084;5.228;2023-04-06T09:45:00;101691.0;;;10.81;56.12
77749;BME280;66938;52.084;5.228;2023-04-06T09:48:15;101696.0;;;10.87;55.74
77749;BME280;66938;52.084;5.228;2023-04-06T09:49:55;101686.0;;;10.9;55.58
77749;BME280;66938;52.084;5.228;2023-04-06T09:51:36;101681.0;;;10.94;56.38
77749;BME280;66938;52.084;5.228;2023-04-06T09:53:16;101680.0;;;11.0;55.84
77749;BME280;66938;52.084;5.228;2023-04-06T09:56:41;101684.0;;;11.02;56.99
77749;BME280;66938;52.084;5.228;2023-04-06T09:58:22;101683.0;;;10.98;57.08
77749;BME280;66938;52.084;5.228;2023-04-06T10:00:03;101684.0;;;10.92;55.64
77749;BME280;66938;52.084;5.228;2023-04-06T10:01:40;101681.0;;;11.02;56.51
77749;BME280;66938;52.084;5.228;2023-04-06T10:05:09;101687.0;;;10.94;57.09
77749;BME280;66938;52.084;5.228;2023-04-06T10:06:48;101688.0;;;10.95;56.86
77749;BME280;66938;52.084;5.228;2023-04-06T10:08:27;101690.0;;;11.03;57.48
77749;BME280;66938;52.084;5.228;2023-04-06T10:10:04;101691.0;;;10.96;58.79
77749;BME280;66938;52.084;5.228;2023-04-06T10:13:19;101685.0;;;11.03;59.13
77749;BME280;66938;52.084;5.228;2023-04-06T10:14:56;101686.0;;;11.01;59.75
77749;BME280;66938;52.084;5.228;2023-04-06T10:16:32;101688.0;;;10.99;60.29
77749;BME280;66938;52.084;5.228;2023-04-06T10:18:08;101689.0;;;10.98;60.6
77749;BME280;66938;52.084;5.228;2023-04-06T10:21:40;101687.0;;;10.99;61.46
77749;BME280;66938;52.084;5.228;2023-04-06T10:23:24;101686.0;;;10.98;62.37
77749;BME280;66938;52.084;5.228;2023-04-06T10:25:07;101689.0;;;10.77;62.56
77749;BME280;66938;52.084;5.228;2023-04-06T10:26:56;101693.0;;;10.91;63.21
77749;BME280;66938;52.084;5.228;2023-04-06T10:30:15;101692.0;;;10.69;64.02
77749;BME280;66938;52.084;5.228;2023-04-06T10:31:51;101689.0;;;10.68;63.56
77749;BME280;66938;52.084;5.228;2023-04-06T10:33:27;101697.0;;;10.64;64.45
77749;BME280;66938;52.084;5.228;2023-04-06T10:35:07;101698.0;;;10.42;64.94
77749;BME280;66938;52.084;5.228;2023-04-06T10:38:20;101687.0;;;10.45;65.52
77749;BME280;66938;52.084;5.228;2023-04-06T10:39:56;101689.0;;;10.47;65.64
77749;BME280;66938;52.084;5.228;2023-04-06T10:41:33;101686.0;;;10.45;66.47
77749;BME280;66938;52.084;5.228;2023-04-06T10:44:49;101687.0;;;10.26;66.95
77749;BME280;66938;52.084;5.228;2023-04-06T10:46:28;101683.0;;;10.23;67.53
77749;BME280;66938;52.084;5.228;2023-04-06T10:48:20;101685.0;;;10.06;68.44
77749;BME280;66938;52.084;5.228;2023-04-06T10:49:56;101682.0;;;9.98;68.27
77749;BME280;66938;52.084;5.228;2023-04-06T10:53:21;101685.0;;;9.84;69.02
77749;BME280;66938;52.084;5.228;2023-04-06T10:54:58;101678.0;;;9.81;68.47
77749;BME280;66938;52.084;5.228;2023-04-06T10:56:37;101671.0;;;9.74;69.05
77749;BME280;66938;52.084;5.228;2023-04-06T10:58:13;101670.0;;;9.81;70.17
77749;BME280;66938;52.084;5.228;2023-04-06T11:01:28;101668.0;;;9.76;70.19
77749;BME280;66938;52.084;5.228;2023-04-06T11:03:05;101661.0;;;9.69;70.55
77749;BME280;66938;52.084;5.228;2023-04-06T11:04:41;101664.0;;;9.59;71.37
77749;BME280;66938;52.084;5.228;2023-04-06T11:06:19;101661.0;;;9.65;71.8
77749;BME280;66938;52.084;5.228;2023-04-06T11:09:31;101665.0;;;9.6;71.77
77749;BME280;66938;52.084;5.228;2023-04-06T11:11:09;101665.0;;;9.64;71.99
77749;BME280;66938;52.084;5.228;2023-04-06T11:12:52;101663.0;;;9.61;71.77
77749;BME280;66938;52.084;5.228;2023-04-06T11:16:04;101660.0;;;9.63;71.16
77749;BME280;66938;52.084;5.228;2023-04-06T11:17:40;101658.0;;;9.66;71.44
77749;BME280;66938;52.084;5.228;2023-04-06T11:19:16;101660.0;;;9.67;71.94
77749;BME280;66938;52.084;5.228;2023-04-06T11:20:53;101656.0;;;9.74;71.16